Time;durP1;ratioP1;P1;durP2;ratioP2;P2;SDS_P1;SDS_P2;PMS_P1;PMS_P2;Temp;Humidity;BMP_temperature;BMP_pressure;BME280_temperature;BME280_humidity;BME280_pressure;Samples;Min_cycle;Max_cycle;Signal;HPM_P1;HPM_P2
2021/12/11 00:00:36;;;;;;;37.50;8.67;;;;;;;19.57;61.60;99042.53;5108794;28;20467;-62
2021/12/11 00:03:17;;;;;;;33.63;7.17;;;;;;;19.51;61.07;99047.09;5109072;28;20206;-62
2021/12/11 00:05:45;;;;;;;38.50;7.73;;;;;;;19.50;61.11;99054.06;5098297;28;20978;-62
2021/12/11 00:08:13;;;;;;;30.03;6.97;;;;;;;19.44;60.31;99040.59;5111393;27;21121;-62
2021/12/11 00:10:47;;;;;;;22.13;5.43;;;;;;;19.48;59.34;99050.81;5091355;28;20954;-61
2021/12/11 00:13:16;;;;;;;30.30;7.10;;;;;;;19.49;59.18;99057.31;5105441;28;20435;-61
2021/12/11 00:15:42;;;;;;;29.97;6.50;;;;;;;19.44;58.67;99060.63;5100456;28;20454;-62
2021/12/11 00:18:14;;;;;;;33.33;7.30;;;;;;;19.38;58.25;99068.84;5088031;28;20938;-61
2021/12/11 00:20:43;;;;;;;21.00;5.40;;;;;;;19.39;57.63;99064.75;5088985;28;20456;-61
2021/12/11 00:23:08;;;;;;;21.07;5.77;;;;;;;19.39;57.03;99066.78;5091045;28;20527;-60
2021/12/11 00:25:41;;;;;;;24.20;5.30;;;;;;;19.41;56.26;99072.94;5107512;28;20552;-62
2021/12/11 00:28:07;;;;;;;20.07;4.50;;;;;;;19.35;55.96;99069.66;5109310;27;20172;-62
2021/12/11 00:30:37;;;;;;;24.70;5.30;;;;;;;19.52;55.94;99073.69;5090046;28;20899;-62
2021/12/11 00:33:15;;;;;;;21.37;4.80;;;;;;;19.35;55.15;99077.44;5099935;28;20173;-62
2021/12/11 00:35:40;;;;;;;21.00;4.53;;;;;;;19.13;55.05;99088.16;5110142;28;20542;-62
2021/12/11 00:38:08;;;;;;;15.97;4.43;;;;;;;19.02;53.67;99104.50;5091743;28;20436;-61
2021/12/11 00:40:34;;;;;;;13.07;4.03;;;;;;;19.00;53.23;99095.53;5099299;28;20176;-62
2021/12/11 00:43:03;;;;;;;24.07;4.30;;;;;;;19.01;53.26;99102.88;5089999;28;20469;-61
2021/12/11 00:45:33;;;;;;;24.00;4.20;;;;;;;18.97;53.25;99101.25;5096147;28;20223;-61
2021/12/11 00:48:02;;;;;;;16.63;4.70;;;;;;;19.02;53.34;99115.94;5096660;28;20824;-61
2021/12/11 00:50:31;;;;;;;17.90;4.37;;;;;;;19.01;53.14;99120.03;5099216;28;20435;-61
2021/12/11 00:53:05;;;;;;;23.87;4.97;;;;;;;19.04;53.39;99124.94;5089239;28;20443;-62
2021/12/11 00:55:33;;;;;;;21.63;4.27;;;;;;;19.04;53.70;99129.84;5101795;28;20470;-62
2021/12/11 00:58:01;;;;;;;20.57;4.10;;;;;;;19.03;53.54;99131.06;5094440;28;20431;-61
2021/12/11 01:00:27;;;;;;;14.07;3.90;;;;;;;19.00;53.90;99134.75;5089357;28;20467;-61
2021/12/11 01:02:53;;;;;;;12.50;3.53;;;;;;;18.97;53.94;99150.69;5090859;28;20412;-61
2021/12/11 01:05:22;;;;;;;21.17;4.20;;;;;;;18.98;53.98;99143.75;5096267;28;20238;-61
2021/12/11 01:07:47;;;;;;;15.47;3.80;;;;;;;18.99;54.06;99153.97;5110363;28;20454;-61
2021/12/11 01:10:22;;;;;;;13.33;3.10;;;;;;;18.97;54.14;99159.28;5102232;28;21166;-62
2021/12/11 01:12:54;;;;;;;16.07;3.70;;;;;;;18.99;54.25;99173.16;5108525;28;20185;-61
2021/12/11 01:15:36;;;;;;;21.50;4.97;;;;;;;18.97;54.18;99176.44;5102833;28;20452;-62
2021/12/11 01:21:04;;;;;;;12.90;3.83;;;;;;;18.95;54.36;99193.19;5089606;28;20955;-62
2021/12/11 01:25:59;;;;;;;12.93;3.40;;;;;;;18.94;54.47;99208.72;5093607;28;20424;-61
2021/12/11 01:28:24;;;;;;;11.93;3.63;;;;;;;18.93;54.44;99212.81;5093861;28;20440;-61
2021/12/11 01:30:50;;;;;;;13.40;3.60;;;;;;;18.91;54.36;99218.13;5089606;28;20582;-62
2021/12/11 01:33:15;;;;;;;11.57;3.53;;;;;;;18.90;54.27;99242.22;5090735;28;20181;-62
2021/12/11 01:35:41;;;;;;;11.53;2.83;;;;;;;18.88;54.62;99250.41;5105804;28;20197;-61
2021/12/11 01:38:13;;;;;;;18.87;3.87;;;;;;;18.88;54.77;99249.59;5122779;28;20170;-62
2021/12/11 01:40:39;;;;;;;17.40;3.60;;;;;;;18.87;54.55;99265.91;5106794;28;20198;-61
2021/12/11 01:43:05;;;;;;;12.03;3.70;;;;;;;18.85;54.61;99276.13;5090037;28;20420;-61
2021/12/11 01:45:31;;;;;;;14.33;2.80;;;;;;;18.89;54.12;99276.94;5089029;28;20697;-61
2021/12/11 01:47:56;;;;;;;12.60;3.57;;;;;;;18.85;54.39;99296.97;5090436;28;20470;-61
2021/12/11 01:50:35;;;;;;;12.00;3.93;;;;;;;18.84;54.58;99303.94;5104501;28;20197;-61
2021/12/11 01:53:22;;;;;;;16.23;3.73;;;;;;;18.82;54.75;99311.28;5093041;28;20289;-62
2021/12/11 01:55:54;;;;;;;12.80;3.30;;;;;;;18.85;54.31;99299.00;5102975;28;20848;-62
2021/12/11 01:58:29;;;;;;;11.80;3.50;;;;;;;18.85;54.42;99304.72;5113416;28;20419;-61
2021/12/11 02:00:57;;;;;;;12.27;3.27;;;;;;;18.82;54.76;99322.72;5108544;28;20469;-62
2021/12/11 02:03:27;;;;;;;11.50;3.27;;;;;;;18.79;54.67;99324.34;5098531;28;20417;-62
2021/12/11 02:05:53;;;;;;;15.37;2.57;;;;;;;18.81;54.67;99333.31;5092664;28;20436;-61
2021/12/11 02:08:22;;;;;;;14.60;3.50;;;;;;;18.79;54.58;99344.34;5091892;28;20525;-61
2021/12/11 02:11:24;;;;;;;12.53;3.40;;;;;;;18.78;54.65;99354.16;5095545;28;20252;-61
2021/12/11 02:13:55;;;;;;;14.93;3.90;;;;;;;18.77;54.61;99348.84;5111306;27;21004;-62
2021/12/11 02:16:31;;;;;;;13.90;3.30;;;;;;;18.77;54.63;99358.22;5108983;28;20424;-61
2021/12/11 02:19:04;;;;;;;9.40;3.43;;;;;;;18.73;54.74;99365.16;5078594;28;20428;-62
2021/12/11 02:21:55;;;;;;;9.30;2.80;;;;;;;18.76;54.47;99365.16;5093188;28;21217;-62
2021/12/11 02:24:24;;;;;;;13.60;3.23;;;;;;;18.75;54.80;99380.69;5097186;28;20511;-61
2021/12/11 02:26:50;;;;;;;16.30;3.40;;;;;;;18.74;54.75;99379.06;5091864;28;20477;-62
2021/12/11 02:29:23;;;;;;;14.83;3.50;;;;;;;18.74;54.62;99384.78;5100635;28;20435;-61
2021/12/11 02:32:14;;;;;;;10.67;3.23;;;;;;;18.73;54.50;99394.59;5115143;27;20538;-61
2021/12/11 02:35:23;;;;;;;9.90;2.80;;;;;;;18.71;54.90;99396.22;5093525;28;20472;-62
2021/12/11 02:37:52;;;;;;;12.63;2.60;;;;;;;18.70;54.84;99406.00;5058519;28;20448;-62
2021/12/11 02:40:25;;;;;;;13.10;3.00;;;;;;;18.68;54.79;99409.28;5058176;28;20433;-61
2021/12/11 02:42:58;;;;;;;10.10;2.70;;;;;;;18.69;54.66;99422.34;5075865;28;20436;-61
2021/12/11 02:45:33;;;;;;;13.17;3.00;;;;;;;18.73;54.61;99422.34;5107927;28;20412;-62
2021/12/11 02:48:09;;;;;;;15.43;2.50;;;;;;;18.70;54.47;99423.97;5106828;28;20530;-61
2021/12/11 02:50:41;;;;;;;9.37;2.70;;;;;;;18.70;54.64;99426.00;5101505;28;20431;-62
2021/12/11 02:53:16;;;;;;;7.30;2.90;;;;;;;18.69;54.46;99433.78;5111291;28;20854;-62
2021/12/11 02:56:01;;;;;;;6.80;2.90;;;;;;;18.72;54.36;99444.41;5101855;28;20542;-61
2021/12/11 02:58:29;;;;;;;8.40;2.50;;;;;;;18.70;54.53;99451.75;5092135;28;20431;-62
2021/12/11 03:01:01;;;;;;;9.83;3.17;;;;;;;18.73;54.25;99457.50;5104032;28;20463;-62
2021/12/11 03:03:35;;;;;;;9.43;2.87;;;;;;;18.67;54.50;99464.81;5107471;28;20806;-61
2021/12/11 03:06:09;;;;;;;7.80;2.30;;;;;;;18.64;54.50;99474.19;5091285;28;20420;-61
2021/12/11 03:08:35;;;;;;;9.53;3.03;;;;;;;18.63;54.76;99478.28;5094186;28;20485;-62
2021/12/11 03:11:06;;;;;;;6.97;2.17;;;;;;;18.64;54.76;99485.63;5106445;28;20840;-62
2021/12/11 03:13:34;;;;;;;6.90;2.53;;;;;;;18.63;54.61;99480.31;5092963;28;20178;-61
2021/12/11 03:16:00;;;;;;;6.60;2.50;;;;;;;18.64;54.61;99484.81;5101894;28;20847;-61
2021/12/11 03:18:27;;;;;;;9.67;2.20;;;;;;;18.63;54.49;99492.59;5110419;28;20415;-63
2021/12/11 03:20:53;;;;;;;6.47;2.37;;;;;;;18.59;54.75;99497.47;5101873;28;20553;-61
2021/12/11 03:23:18;;;;;;;8.50;3.00;;;;;;;18.63;54.73;99503.19;5100664;28;20427;-61
2021/12/11 03:25:45;;;;;;;7.90;2.50;;;;;;;18.63;54.50;99511.75;5110647;28;20895;-61
2021/12/11 03:28:11;;;;;;;8.23;2.73;;;;;;;18.60;54.57;99519.09;5104881;28;20284;-62
2021/12/11 03:30:43;;;;;;;8.47;3.17;;;;;;;18.60;54.58;99527.69;5111098;28;20428;-62
2021/12/11 03:33:11;;;;;;;7.60;2.10;;;;;;;18.59;54.47;99537.47;5082709;28;20219;-61
2021/12/11 03:35:37;;;;;;;6.60;2.33;;;;;;;18.57;54.52;99533.38;5091181;28;20857;-61
2021/12/11 03:38:03;;;;;;;9.37;2.57;;;;;;;18.62;54.25;99536.66;5104257;27;20432;-61
2021/12/11 03:40:28;;;;;;;4.80;2.00;;;;;;;18.58;54.86;99547.28;5111574;28;20792;-61
2021/12/11 03:42:54;;;;;;;8.77;2.37;;;;;;;18.61;54.76;99552.19;5111354;28;20247;-61
2021/12/11 03:45:25;;;;;;;13.40;2.93;;;;;;;18.60;54.28;99555.44;5107530;28;20196;-62
2021/12/11 03:47:57;;;;;;;8.80;2.50;;;;;;;18.60;54.54;99559.13;5111708;28;20165;-61
2021/12/11 03:50:22;;;;;;;10.10;2.50;;;;;;;18.59;54.34;99554.63;5102454;28;20939;-61
2021/12/11 03:52:49;;;;;;;8.53;2.27;;;;;;;18.54;54.55;99557.88;5095187;28;20425;-61
2021/12/11 03:55:19;;;;;;;8.50;2.60;;;;;;;18.56;54.50;99564.00;5090976;28;20674;-61
2021/12/11 03:57:45;;;;;;;5.80;2.20;;;;;;;18.54;54.64;99568.47;5098187;28;20523;-62
2021/12/11 04:00:19;;;;;;;6.27;2.23;;;;;;;18.55;54.31;99576.66;5090213;28;20460;-62
2021/12/11 04:02:45;;;;;;;6.03;2.00;;;;;;;18.54;54.34;99586.44;5094365;28;20185;-62
2021/12/11 04:05:10;;;;;;;7.57;2.30;;;;;;;18.56;54.34;99584.00;5111009;28;20430;-61
2021/12/11 04:07:40;;;;;;;10.10;2.70;;;;;;;18.54;54.43;99595.03;5106739;28;20246;-61
2021/12/11 04:10:06;;;;;;;9.43;2.90;;;;;;;18.58;54.37;99595.88;5102191;28;20202;-61
2021/12/11 04:12:31;;;;;;;8.20;3.20;;;;;;;18.55;54.26;99599.53;5106727;28;20930;-61
2021/12/11 04:14:56;;;;;;;8.33;2.47;;;;;;;18.59;54.36;99614.66;5110156;28;20451;-61
2021/12/11 04:17:23;;;;;;;6.53;2.20;;;;;;;18.59;54.44;99622.41;5102126;28;20285;-61
2021/12/11 04:19:50;;;;;;;8.00;2.43;;;;;;;18.54;54.41;99625.63;5112112;27;20984;-62
2021/12/11 04:22:16;;;;;;;5.27;1.87;;;;;;;18.55;54.23;99621.56;5109027;28;20490;-62
2021/12/11 04:24:42;;;;;;;7.03;2.00;;;;;;;18.57;54.39;99627.72;5101201;28;20945;-61
2021/12/11 04:27:09;;;;;;;9.50;1.80;;;;;;;18.54;54.23;99635.03;5110108;28;20856;-61
2021/12/11 04:29:35;;;;;;;6.57;2.60;;;;;;;18.56;54.13;99641.19;5110877;28;20491;-62
2021/12/11 04:32:02;;;;;;;5.80;2.50;;;;;;;18.56;54.35;99640.38;5110513;27;20443;-61
2021/12/11 04:34:27;;;;;;;5.10;2.13;;;;;;;18.58;54.38;99650.19;5103338;28;20194;-61
2021/12/11 04:36:58;;;;;;;9.43;2.00;;;;;;;18.54;54.32;99651.38;5111584;28;20507;-61
2021/12/11 04:39:24;;;;;;;6.17;2.00;;;;;;;18.53;54.26;99659.13;5105624;28;20173;-62
2021/12/11 04:42:41;;;;;;;5.97;2.40;;;;;;;18.56;54.37;99664.03;5071442;28;20417;-61
2021/12/11 04:44:42;;;;;;;5.73;2.10;;;;;;;18.54;54.14;99663.63;5084224;28;20846;-62
2021/12/11 04:47:26;;;;;;;5.27;1.70;;;;;;;18.54;54.36;99666.50;5075755;28;20456;-61
2021/12/11 04:49:57;;;;;;;7.40;2.30;;;;;;;18.59;53.95;99674.69;5092810;28;20798;-61
2021/12/11 04:52:58;;;;;;;7.30;2.33;;;;;;;18.57;54.36;99676.31;5104842;28;20426;-61
2021/12/11 05:00:31;;;;;;;8.63;2.27;;;;;;;18.61;54.05;99697.19;5110039;28;20217;-61
2021/12/11 05:10:59;;;;;;;5.50;2.20;;;;;;;18.54;54.17;99712.22;5091870;28;20933;-61
2021/12/11 05:13:25;;;;;;;5.60;2.10;;;;;;;18.56;53.99;99714.69;5097371;28;20519;-61
2021/12/11 05:15:51;;;;;;;3.93;1.70;;;;;;;18.54;53.91;99726.53;5106772;28;20847;-62
2021/12/11 05:18:19;;;;;;;4.27;1.63;;;;;;;18.55;54.06;99725.31;5104976;28;20918;-62
2021/12/11 05:20:45;;;;;;;7.57;2.03;;;;;;;18.55;54.13;99733.88;5091690;28;20456;-61
2021/12/11 05:23:12;;;;;;;6.80;1.93;;;;;;;18.53;54.03;99738.34;5090474;28;20529;-61
2021/12/11 05:25:37;;;;;;;6.83;2.03;;;;;;;18.55;54.20;99748.16;5095209;28;20432;-62
2021/12/11 05:28:03;;;;;;;5.73;1.73;;;;;;;18.51;54.25;99747.31;5098659;28;20428;-61
2021/12/11 05:30:32;;;;;;;9.60;2.57;;;;;;;18.54;53.92;99755.09;5076473;28;20201;-61
2021/12/11 05:32:59;;;;;;;6.50;1.90;;;;;;;18.54;54.04;99757.97;5099285;28;20239;-61
2021/12/11 05:35:25;;;;;;;4.27;1.50;;;;;;;18.60;53.98;99773.53;5093603;28;20448;-62
2021/12/11 05:37:51;;;;;;;7.50;2.03;;;;;;;18.54;53.80;99775.13;5095796;27;20433;-61
2021/12/11 05:40:18;;;;;;;7.40;2.10;;;;;;;18.48;54.07;99776.69;5121530;27;20420;-62
2021/12/11 05:42:44;;;;;;;3.87;1.53;;;;;;;18.49;54.16;99780.34;5108506;28;20185;-61
2021/12/11 05:45:09;;;;;;;5.90;1.90;;;;;;;18.48;53.89;99776.69;5112285;28;20408;-61
2021/12/11 05:47:35;;;;;;;6.03;1.90;;;;;;;18.47;54.10;99789.31;5104311;28;20515;-61
2021/12/11 05:50:00;;;;;;;5.67;1.70;;;;;;;18.49;54.06;99789.78;5113295;28;20174;-61
2021/12/11 05:52:26;;;;;;;5.90;1.70;;;;;;;18.51;53.74;99790.19;5104700;28;20186;-62
2021/12/11 05:54:52;;;;;;;5.23;1.80;;;;;;;18.51;53.94;99797.97;5111124;28;20206;-61
2021/12/11 05:57:18;;;;;;;5.73;2.03;;;;;;;18.51;53.76;99807.34;5111913;28;20174;-61
2021/12/11 05:59:44;;;;;;;5.70;1.80;;;;;;;18.52;53.92;99811.84;5106945;28;20541;-61
2021/12/11 06:02:20;;;;;;;4.33;1.83;;;;;;;18.51;53.93;99815.91;5105875;28;20920;-61
2021/12/11 06:04:48;;;;;;;5.80;1.97;;;;;;;18.52;54.03;99828.19;5113500;28;20594;-61
2021/12/11 06:07:14;;;;;;;4.07;1.97;;;;;;;18.53;53.79;99836.38;5113733;28;20425;-61
2021/12/11 06:09:40;;;;;;;3.67;1.37;;;;;;;18.51;53.80;99841.63;5111811;28;20510;-61
2021/12/11 06:12:08;;;;;;;6.40;2.10;;;;;;;18.56;53.59;99841.28;5095411;28;20420;-61
2021/12/11 06:14:35;;;;;;;8.00;1.80;;;;;;;18.49;53.70;99852.66;5112654;28;20448;-61
2021/12/11 06:17:02;;;;;;;7.10;2.30;;;;;;;18.57;53.79;99848.63;5109754;28;20443;-61
2021/12/11 06:19:28;;;;;;;4.87;1.60;;;;;;;18.55;53.72;99859.66;5093707;28;20421;-61
2021/12/11 06:21:54;;;;;;;2.93;1.40;;;;;;;18.54;53.89;99860.88;5094394;28;20467;-61
2021/12/11 06:24:19;;;;;;;4.00;1.70;;;;;;;18.57;53.77;99865.00;5101217;28;20550;-61
2021/12/11 06:26:45;;;;;;;3.40;1.57;;;;;;;18.60;53.58;99867.88;5108241;28;20181;-61
2021/12/11 06:29:10;;;;;;;8.77;1.90;;;;;;;18.55;53.78;99873.13;5112170;28;20185;-61
2021/12/11 06:31:36;;;;;;;5.37;1.93;;;;;;;18.59;53.71;99876.84;5113653;28;20621;-62
2021/12/11 06:34:01;;;;;;;6.10;2.87;;;;;;;18.56;53.73;99889.88;5103466;28;20179;-62
2021/12/11 06:36:27;;;;;;;5.00;1.60;;;;;;;18.59;53.47;99891.97;5113295;28;20203;-61
2021/12/11 06:38:59;;;;;;;4.90;1.33;;;;;;;18.59;53.63;99896.84;5119665;27;20202;-61
2021/12/11 06:41:28;;;;;;;5.80;1.80;;;;;;;18.55;53.50;99890.28;5107603;28;20173;-61
2021/12/11 06:43:53;;;;;;;3.27;1.30;;;;;;;18.53;53.85;99907.84;5112390;28;20416;-62
2021/12/11 06:46:19;;;;;;;3.77;1.70;;;;;;;18.61;53.47;99912.41;5109491;28;20423;-61
2021/12/11 06:48:44;;;;;;;5.00;2.13;;;;;;;18.56;53.45;99917.66;5105080;28;20181;-61
2021/12/11 06:51:09;;;;;;;4.27;1.57;;;;;;;18.53;53.76;99916.41;5112573;28;20729;-61
2021/12/11 06:53:52;;;;;;;4.00;1.33;;;;;;;18.54;53.74;99929.50;5113215;28;20223;-61
2021/12/11 06:56:19;;;;;;;4.40;1.70;;;;;;;18.55;53.55;99930.28;5104227;28;20718;-61
2021/12/11 06:58:44;;;;;;;4.60;1.47;;;;;;;18.53;53.39;99927.84;5111149;28;20434;-61
2021/12/11 07:01:10;;;;;;;6.20;1.80;;;;;;;18.53;53.56;99941.31;5105569;28;20548;-62
2021/12/11 07:03:35;;;;;;;3.07;1.47;;;;;;;18.51;53.70;99952.31;5107386;28;20174;-62
2021/12/11 07:06:01;;;;;;;5.93;1.90;;;;;;;18.51;53.78;99964.56;5111724;28;20637;-61
2021/12/11 07:08:28;;;;;;;4.07;1.40;;;;;;;18.55;53.50;99971.16;5112958;28;20629;-61
2021/12/11 07:10:54;;;;;;;3.33;1.47;;;;;;;18.48;53.83;99976.78;5104620;28;20627;-62
2021/12/11 07:13:19;;;;;;;6.03;1.60;;;;;;;18.54;53.46;99985.81;5111616;28;20451;-61
2021/12/11 07:15:45;;;;;;;5.03;1.77;;;;;;;18.57;53.44;99990.78;5107935;28;20594;-63
2021/12/11 07:18:11;;;;;;;4.73;1.47;;;;;;;18.56;53.49;100006.28;5100564;28;20714;-61
2021/12/11 07:20:36;;;;;;;4.70;1.60;;;;;;;18.49;53.58;100000.47;5090766;28;20166;-62
2021/12/11 07:23:02;;;;;;;4.97;1.30;;;;;;;18.53;53.42;100005.03;5094847;28;20183;-62
2021/12/11 07:25:59;;;;;;;3.47;1.20;;;;;;;18.48;54.01;100010.25;5101319;28;20181;-62
2021/12/11 07:28:25;;;;;;;2.60;1.20;;;;;;;18.51;53.59;100020.94;5095781;28;20248;-62
2021/12/11 07:30:51;;;;;;;3.47;1.47;;;;;;;18.50;53.58;100028.66;5093278;28;20428;-61
2021/12/11 07:33:17;;;;;;;4.23;1.87;;;;;;;18.50;53.84;100034.38;5101471;28;20177;-61
2021/12/11 07:35:42;;;;;;;3.93;1.50;;;;;;;18.49;53.66;100047.03;5090757;28;20456;-62
2021/12/11 07:38:08;;;;;;;4.00;1.80;;;;;;;18.51;53.55;100050.31;5114550;27;20268;-61
2021/12/11 07:40:37;;;;;;;4.53;1.40;;;;;;;18.48;53.71;100058.84;5090461;28;20238;-61
2021/12/11 07:43:03;;;;;;;3.23;1.37;;;;;;;18.49;53.76;100064.19;5093475;28;20178;-61
2021/12/11 07:45:29;;;;;;;5.57;1.80;;;;;;;18.48;53.68;100067.44;5095856;28;20467;-61
2021/12/11 07:47:54;;;;;;;4.37;1.50;;;;;;;18.47;53.60;100075.16;5093867;28;20936;-62
2021/12/11 07:50:20;;;;;;;3.87;1.63;;;;;;;18.50;53.76;100085.00;5099971;27;20617;-62
2021/12/11 07:52:46;;;;;;;3.30;1.27;;;;;;;18.50;53.78;100085.84;5100829;28;20174;-62
2021/12/11 07:55:11;;;;;;;3.40;1.23;;;;;;;18.52;53.30;100096.91;5100946;28;20190;-61
2021/12/11 07:57:37;;;;;;;8.10;1.97;;;;;;;18.52;53.36;100103.41;5106655;28;20681;-61
2021/12/11 08:00:05;;;;;;;3.27;1.40;;;;;;;18.56;53.32;100107.16;5102968;28;20301;-61
2021/12/11 08:02:31;;;;;;;4.43;1.40;;;;;;;18.54;53.32;100101.03;5090233;28;20984;-61
2021/12/11 08:04:56;;;;;;;4.87;1.50;;;;;;;18.54;53.45;100112.44;5096065;28;20438;-62
2021/12/11 08:07:22;;;;;;;2.33;1.30;;;;;;;18.53;53.66;100113.66;5111473;28;20196;-62
2021/12/11 08:09:47;;;;;;;8.10;2.00;;;;;;;18.51;53.40;100118.13;5110875;28;20553;-61
2021/12/11 08:12:13;;;;;;;4.73;1.60;;;;;;;18.54;53.61;100128.75;5101758;28;20174;-61
2021/12/11 08:14:38;;;;;;;4.10;1.23;;;;;;;18.55;53.59;100125.53;5095275;27;20540;-61
2021/12/11 08:17:06;;;;;;;3.27;1.30;;;;;;;18.52;53.78;100128.34;5101639;27;20186;-61
2021/12/11 08:19:32;;;;;;;3.60;1.30;;;;;;;18.49;53.46;100138.50;5092426;27;20186;-62
2021/12/11 08:21:59;;;;;;;3.30;1.47;;;;;;;18.53;53.55;100141.41;5104382;28;20480;-62
2021/12/11 08:24:26;;;;;;;2.90;1.13;;;;;;;18.53;53.56;100147.97;5111160;28;20173;-61
2021/12/11 08:26:53;;;;;;;3.37;1.30;;;;;;;18.60;53.38;100150.09;5100781;28;20481;-61
2021/12/11 08:29:18;;;;;;;4.13;1.53;;;;;;;18.56;53.36;100147.19;5110831;28;20419;-63
2021/12/11 08:31:47;;;;;;;3.00;1.40;;;;;;;18.55;53.26;100159.84;5099718;28;20429;-62
2021/12/11 08:34:13;;;;;;;5.67;1.70;;;;;;;18.55;53.19;100159.00;5092814;28;20178;-61
2021/12/11 08:36:38;;;;;;;4.70;1.20;;;;;;;18.57;53.27;100168.03;5091899;28;20428;-61
2021/12/11 08:39:05;;;;;;;2.67;1.30;;;;;;;18.54;53.38;100165.94;5110887;28;20182;-61
2021/12/11 08:41:31;;;;;;;2.63;1.20;;;;;;;18.50;53.66;100171.59;5103206;28;20216;-61
2021/12/11 08:44:00;;;;;;;4.60;1.40;;;;;;;18.52;53.35;100183.47;5111572;28;20411;-61
2021/12/11 08:46:27;;;;;;;2.83;1.40;;;;;;;18.51;53.53;100184.69;5106679;28;20174;-61
2021/12/11 08:48:54;;;;;;;2.80;1.00;;;;;;;18.54;53.34;100186.78;5110939;28;20420;-61
2021/12/11 08:51:22;;;;;;;1.97;0.97;;;;;;;18.56;53.33;100197.84;5108045;28;21230;-61
2021/12/11 08:53:47;;;;;;;2.57;1.30;;;;;;;18.54;53.29;100197.38;5108487;28;20452;-62
2021/12/11 08:56:16;;;;;;;3.90;1.40;;;;;;;18.53;53.24;100207.16;5109751;28;20443;-61
2021/12/11 08:58:42;;;;;;;2.20;0.97;;;;;;;18.54;53.33;100205.97;5100076;28;20562;-61
2021/12/11 09:01:17;;;;;;;3.80;1.30;;;;;;;18.57;53.38;100211.72;5098546;28;20491;-61
2021/12/11 09:03:49;;;;;;;2.83;1.07;;;;;;;18.52;53.48;100216.97;5080819;28;20451;-61
2021/12/11 09:06:27;;;;;;;3.17;1.43;;;;;;;18.49;53.49;100223.44;5096147;28;20435;-61
2021/12/11 09:09:04;;;;;;;3.17;1.30;;;;;;;18.50;53.26;100240.22;5111251;28;21076;-61
2021/12/11 09:11:40;;;;;;;2.80;1.30;;;;;;;18.53;53.48;100244.34;5111409;28;20455;-61
2021/12/11 09:14:25;;;;;;;3.40;1.20;;;;;;;18.51;53.60;100249.63;5093241;28;20966;-61
2021/12/11 09:16:52;;;;;;;2.60;1.10;;;;;;;18.49;53.51;100249.16;5095391;28;20432;-62
2021/12/11 09:19:24;;;;;;;2.47;1.00;;;;;;;18.49;53.27;100255.72;5089408;28;20431;-61
2021/12/11 09:22:18;;;;;;;2.80;1.30;;;;;;;18.52;53.43;100257.78;5104244;28;21068;-61
2021/12/11 09:24:51;;;;;;;2.63;1.20;;;;;;;18.53;53.50;100264.34;5100788;28;20770;-61
2021/12/11 09:27:42;;;;;;;2.40;1.00;;;;;;;18.48;53.36;100268.38;5095413;28;20424;-61
2021/12/11 09:30:33;;;;;;;2.03;1.13;;;;;;;18.51;53.19;100279.03;5092464;28;20522;-61
2021/12/11 09:33:05;;;;;;;2.63;1.27;;;;;;;18.53;53.61;100284.38;5094988;28;20408;-61
2021/12/11 09:35:40;;;;;;;2.77;1.10;;;;;;;18.52;53.47;100289.25;5094753;28;20452;-61
2021/12/11 09:38:11;;;;;;;2.80;1.50;;;;;;;18.56;53.29;100295.84;5100856;27;20445;-61
2021/12/11 09:40:37;;;;;;;2.40;1.00;;;;;;;18.56;53.33;100298.72;5093225;28;20417;-61
2021/12/11 09:43:03;;;;;;;5.93;1.37;;;;;;;18.54;53.60;100301.16;5104109;28;20506;-61
2021/12/11 09:45:32;;;;;;;2.53;1.00;;;;;;;18.54;53.58;100301.16;5105543;28;20170;-61
2021/12/11 09:48:03;;;;;;;4.83;1.63;;;;;;;18.52;53.54;100297.81;5096082;28;20646;-61
2021/12/11 09:50:45;;;;;;;3.80;1.60;;;;;;;18.55;53.33;100307.66;5096220;28;20435;-62
2021/12/11 09:53:12;;;;;;;3.63;1.00;;;;;;;18.54;53.30;100312.56;5099745;28;20419;-61
2021/12/11 09:55:39;;;;;;;2.37;1.00;;;;;;;18.59;53.05;100315.13;5107813;28;21024;-61
2021/12/11 09:58:08;;;;;;;1.90;0.90;;;;;;;18.57;53.16;100311.81;5098843;28;20432;-62
2021/12/11 10:00:36;;;;;;;3.50;1.17;;;;;;;18.57;53.24;100323.22;5093376;28;20452;-61
2021/12/11 10:03:05;;;;;;;3.20;1.40;;;;;;;18.30;49.37;100318.63;5093947;28;20896;-62
2021/12/11 10:05:39;;;;;;;7.10;4.50;;;;;;;17.33;48.20;100321.00;5111538;27;20466;-61
2021/12/11 10:08:32;;;;;;;6.60;4.30;;;;;;;17.54;47.40;100314.97;5096401;28;21000;-61
2021/12/11 10:11:09;;;;;;;6.70;4.50;;;;;;;17.42;46.09;100324.50;5111370;28;21013;-61
2021/12/11 10:13:56;;;;;;;6.80;4.80;;;;;;;17.75;44.75;100324.03;5094567;27;20523;-61
2021/12/11 10:16:27;;;;;;;4.83;3.83;;;;;;;18.49;43.42;100320.63;5090605;28;21017;-61
2021/12/11 10:18:53;;;;;;;5.50;3.60;;;;;;;18.75;44.75;100327.25;5100806;28;20543;-61
2021/12/11 10:21:25;;;;;;;4.80;3.57;;;;;;;19.21;44.27;100330.91;5091128;28;20428;-62
2021/12/11 10:23:52;;;;;;;8.27;4.10;;;;;;;19.30;44.58;100334.31;5093671;28;20190;-61
2021/12/11 10:26:19;;;;;;;5.43;3.80;;;;;;;19.38;45.41;100336.09;5090837;28;20433;-61
2021/12/11 10:28:46;;;;;;;6.13;3.43;;;;;;;19.88;44.96;100344.19;5081034;28;20427;-61
2021/12/11 10:31:24;;;;;;;6.00;2.97;;;;;;;19.98;46.38;100350.06;5092458;28;20436;-60
2021/12/11 10:33:49;;;;;;;3.73;2.40;;;;;;;19.89;46.39;100346.66;5084953;28;20502;-61
2021/12/11 10:36:16;;;;;;;6.73;2.60;;;;;;;19.85;47.13;100348.66;5100106;28;20626;-61
2021/12/11 10:38:42;;;;;;;4.00;2.57;;;;;;;19.89;47.39;100358.13;5099994;27;20178;-61
2021/12/11 10:41:08;;;;;;;3.57;2.40;;;;;;;19.87;47.67;100349.06;5093992;28;20796;-61
2021/12/11 10:44:04;;;;;;;3.80;2.60;;;;;;;19.57;48.46;100359.69;5099683;28;20215;-61
2021/12/11 10:46:33;;;;;;;2.93;2.13;;;;;;;19.37;48.97;100365.94;5100475;28;20268;-61
2021/12/11 10:48:58;;;;;;;5.53;2.30;;;;;;;19.40;48.71;100370.88;5090940;27;20454;-61
2021/12/11 10:51:30;;;;;;;3.60;1.90;;;;;;;19.21;49.20;100368.09;5101869;27;20448;-61
2021/12/11 10:53:57;;;;;;;5.20;2.27;;;;;;;19.24;49.83;100375.94;5093307;28;20179;-61
2021/12/11 10:56:23;;;;;;;3.53;2.30;;;;;;;19.30;49.22;100383.81;5082577;28;20501;-62
2021/12/11 10:58:51;;;;;;;4.70;1.90;;;;;;;19.50;49.28;100375.94;5090277;28;20428;-61
2021/12/11 11:01:21;;;;;;;4.37;2.23;;;;;;;19.43;50.03;100385.28;5090740;28;20249;-62
2021/12/11 11:03:49;;;;;;;3.00;1.60;;;;;;;19.30;50.65;100380.97;5095021;28;20462;-61
2021/12/11 11:06:15;;;;;;;5.87;1.90;;;;;;;19.26;50.29;100391.53;5093322;28;20424;-61
2021/12/11 11:08:40;;;;;;;2.20;1.40;;;;;;;19.27;50.33;100395.22;5090276;28;20443;-61
2021/12/11 11:11:09;;;;;;;11.47;2.50;;;;;;;19.29;50.43;100393.63;5104633;28;20231;-61
2021/12/11 11:13:35;;;;;;;5.03;2.50;;;;;;;19.28;48.94;100406.28;5090219;28;20227;-61
2021/12/11 11:16:01;;;;;;;3.40;2.40;;;;;;;19.33;48.23;100408.00;5098828;28;20542;-61
2021/12/11 11:18:26;;;;;;;4.13;2.60;;;;;;;19.16;47.87;100406.44;5100200;28;20181;-61
2021/12/11 11:20:59;;;;;;;3.50;2.80;;;;;;;19.07;48.92;100410.78;5098404;28;20174;-61
2021/12/11 11:23:25;;;;;;;3.60;2.50;;;;;;;19.08;48.67;100410.41;5093960;28;20182;-61
2021/12/11 11:25:52;;;;;;;6.00;2.50;;;;;;;19.02;48.86;100411.91;5097012;28;20847;-61
2021/12/11 11:28:20;;;;;;;3.10;2.20;;;;;;;19.02;49.09;100411.91;5096515;28;20187;-61
2021/12/11 11:30:52;;;;;;;2.67;1.97;;;;;;;19.15;48.67;100421.97;5087880;28;20432;-61
2021/12/11 11:33:18;;;;;;;2.83;1.70;;;;;;;19.23;48.82;100426.66;5099040;28;20440;-61
2021/12/11 11:35:44;;;;;;;3.90;2.23;;;;;;;19.15;49.46;100412.53;5093296;28;20487;-61
2021/12/11 11:38:17;;;;;;;3.00;1.77;;;;;;;19.10;50.11;100422.28;5108352;27;20165;-61
2021/12/11 11:40:45;;;;;;;3.80;2.30;;;;;;;19.11;50.21;100426.00;5098421;28;20459;-62
2021/12/11 11:43:15;;;;;;;5.23;2.50;;;;;;;19.14;50.51;100428.91;5089767;28;20417;-61
2021/12/11 11:45:40;;;;;;;2.70;1.77;;;;;;;19.10;50.66;100422.28;5094866;28;20436;-62
2021/12/11 11:48:06;;;;;;;3.20;1.57;;;;;;;19.10;50.27;100428.00;5104080;28;20423;-61
2021/12/11 11:50:35;;;;;;;6.93;2.07;;;;;;;19.16;50.43;100437.13;5105595;28;20579;-62
2021/12/11 11:53:00;;;;;;;3.03;1.50;;;;;;;19.07;50.92;100428.75;5101694;28;20544;-61
2021/12/11 11:55:32;;;;;;;3.43;1.87;;;;;;;19.07;50.97;100430.81;5100112;28;20455;-61
2021/12/11 11:57:57;;;;;;;10.90;2.00;;;;;;;18.97;50.48;100442.91;5103614;28;20225;-61